sensor_id;sensor_type;location;lat;lon;timestamp;temperature;humidity
13998;DHT22;7074;51.508;7.018;2023-04-08T00:01:10;8.90;99.90
13998;DHT22;7074;51.508;7.018;2023-04-08T00:03:39;9.00;99.90
13998;DHT22;7074;51.508;7.018;2023-04-08T00:06:10;8.90;99.90
13998;DHT22;7074;51.508;7.018;2023-04-08T00:08:38;8.90;99.90
13998;DHT22;7074;51.508;7.018;2023-04-08T00:11:05;8.90;99.90
13998;DHT22;7074;51.508;7.018;2023-04-08T00:13:33;8.80;99.90
13998;DHT22;7074;51.508;7.018;2023-04-08T00:16:00;8.80;99.90
13998;DHT22;7074;51.508;7.018;2023-04-08T00:18:28;8.80;99.90
13998;DHT22;7074;51.508;7.018;2023-04-08T00:20:57;8.80;99.90
13998;DHT22;7074;51.508;7.018;2023-04-08T00:23:25;8.80;99.90
13998;DHT22;7074;51.508;7.018;2023-04-08T00:25:52;8.80;99.90
13998;DHT22;7074;51.508;7.018;2023-04-08T00:28:20;8.80;99.90
13998;DHT22;7074;51.508;7.018;2023-04-08T00:30:47;8.80;99.90
13998;DHT22;7074;51.508;7.018;2023-04-08T00:33:16;8.70;99.90
13998;DHT22;7074;51.508;7.018;2023-04-08T00:35:44;8.70;99.90
13998;DHT22;7074;51.508;7.018;2023-04-08T00:38:13;8.70;99.90
13998;DHT22;7074;51.508;7.018;2023-04-08T00:40:40;8.60;99.90
13998;DHT22;7074;51.508;7.018;2023-04-08T00:43:07;8.50;99.90
13998;DHT22;7074;51.508;7.018;2023-04-08T00:45:35;8.50;99.90
13998;DHT22;7074;51.508;7.018;2023-04-08T00:48:03;8.50;99.90
13998;DHT22;7074;51.508;7.018;2023-04-08T00:50:30;8.50;99.90
13998;DHT22;7074;51.508;7.018;2023-04-08T00:52:58;8.50;99.90
13998;DHT22;7074;51.508;7.018;2023-04-08T00:55:27;8.50;99.90
13998;DHT22;7074;51.508;7.018;2023-04-08T00:57:55;8.40;99.90
13998;DHT22;7074;51.508;7.018;2023-04-08T01:00:23;8.40;99.90
13998;DHT22;7074;51.508;7.018;2023-04-08T01:02:57;8.40;99.90
13998;DHT22;7074;51.508;7.018;2023-04-08T01:05:32;8.50;99.90
13998;DHT22;7074;51.508;7.018;2023-04-08T01:08:06;8.50;99.90
13998;DHT22;7074;51.508;7.018;2023-04-08T01:10:36;8.40;99.90
13998;DHT22;7074;51.508;7.018;2023-04-08T01:13:08;8.30;99.90
13998;DHT22;7074;51.508;7.018;2023-04-08T01:15:38;8.20;99.90
13998;DHT22;7074;51.508;7.018;2023-04-08T01:18:09;8.20;99.90
13998;DHT22;7074;51.508;7.018;2023-04-08T01:20:40;8.20;99.90
13998;DHT22;7074;51.508;7.018;2023-04-08T01:23:14;8.30;99.90
13998;DHT22;7074;51.508;7.018;2023-04-08T01:39:40;8.30;99.90
13998;DHT22;7074;51.508;7.018;2023-04-08T01:43:10;8.30;99.90
13998;DHT22;7074;51.508;7.018;2023-04-08T01:46:54;8.30;99.90
13998;DHT22;7074;51.508;7.018;2023-04-08T01:50:33;8.30;99.90
13998;DHT22;7074;51.508;7.018;2023-04-08T02:08:21;8.40;99.90
13998;DHT22;7074;51.508;7.018;2023-04-08T02:11:02;8.40;99.90
13998;DHT22;7074;51.508;7.018;2023-04-08T02:13:30;8.30;99.90
13998;DHT22;7074;51.508;7.018;2023-04-08T02:16:14;8.10;99.90
13998;DHT22;7074;51.508;7.018;2023-04-08T02:19:39;8.10;99.90
13998;DHT22;7074;51.508;7.018;2023-04-08T02:23:05;8.30;99.90
13998;DHT22;7074;51.508;7.018;2023-04-08T02:46:08;8.40;99.90
13998;DHT22;7074;51.508;7.018;2023-04-08T02:48:36;8.40;99.90
13998;DHT22;7074;51.508;7.018;2023-04-08T02:51:03;8.40;99.90
13998;DHT22;7074;51.508;7.018;2023-04-08T02:53:31;8.50;99.90
13998;DHT22;7074;51.508;7.018;2023-04-08T02:55:58;8.50;99.90
13998;DHT22;7074;51.508;7.018;2023-04-08T02:58:26;8.50;99.90
13998;DHT22;7074;51.508;7.018;2023-04-08T03:00:54;8.50;99.90
13998;DHT22;7074;51.508;7.018;2023-04-08T03:03:23;8.60;99.90
13998;DHT22;7074;51.508;7.018;2023-04-08T03:05:54;8.60;99.90
13998;DHT22;7074;51.508;7.018;2023-04-08T03:08:22;8.50;99.90
13998;DHT22;7074;51.508;7.018;2023-04-08T03:10:49;8.60;99.90
13998;DHT22;7074;51.508;7.018;2023-04-08T05:11:19;7.50;99.90
13998;DHT22;7074;51.508;7.018;2023-04-08T05:13:48;7.50;99.90
13998;DHT22;7074;51.508;7.018;2023-04-08T05:16:16;7.60;99.90
13998;DHT22;7074;51.508;7.018;2023-04-08T05:18:44;7.60;99.90
13998;DHT22;7074;51.508;7.018;2023-04-08T05:21:11;7.50;99.90
13998;DHT22;7074;51.508;7.018;2023-04-08T05:23:38;7.50;99.90
13998;DHT22;7074;51.508;7.018;2023-04-08T05:26:06;7.60;99.90
13998;DHT22;7074;51.508;7.018;2023-04-08T05:28:35;7.60;99.90
13998;DHT22;7074;51.508;7.018;2023-04-08T05:31:02;7.40;99.90
13998;DHT22;7074;51.508;7.018;2023-04-08T05:33:30;7.50;99.90
13998;DHT22;7074;51.508;7.018;2023-04-08T05:35:57;7.40;99.90
13998;DHT22;7074;51.508;7.018;2023-04-08T05:38:24;7.40;99.90
13998;DHT22;7074;51.508;7.018;2023-04-08T05:40:51;7.20;99.90
13998;DHT22;7074;51.508;7.018;2023-04-08T05:43:19;7.10;99.90
13998;DHT22;7074;51.508;7.018;2023-04-08T05:45:47;7.30;99.90
13998;DHT22;7074;51.508;7.018;2023-04-08T05:48:14;7.10;99.90
13998;DHT22;7074;51.508;7.018;2023-04-08T05:50:41;7.30;99.90
13998;DHT22;7074;51.508;7.018;2023-04-08T05:53:09;7.10;99.90
13998;DHT22;7074;51.508;7.018;2023-04-08T05:55:36;7.10;99.90
13998;DHT22;7074;51.508;7.018;2023-04-08T05:58:04;7.20;99.90
13998;DHT22;7074;51.508;7.018;2023-04-08T06:00:31;7.30;99.90
13998;DHT22;7074;51.508;7.018;2023-04-08T06:03:00;7.40;99.90
13998;DHT22;7074;51.508;7.018;2023-04-08T06:05:27;7.40;99.90
13998;DHT22;7074;51.508;7.018;2023-04-08T06:07:55;7.50;99.90
13998;DHT22;7074;51.508;7.018;2023-04-08T06:10:22;7.70;99.90
13998;DHT22;7074;51.508;7.018;2023-04-08T06:12:49;7.70;99.90
13998;DHT22;7074;51.508;7.018;2023-04-08T06:15:17;7.60;99.90
13998;DHT22;7074;51.508;7.018;2023-04-08T06:17:44;7.40;99.90
13998;DHT22;7074;51.508;7.018;2023-04-08T06:20:13;7.40;99.90
13998;DHT22;7074;51.508;7.018;2023-04-08T06:22:40;7.50;99.90
13998;DHT22;7074;51.508;7.018;2023-04-08T06:25:08;7.40;99.90
13998;DHT22;7074;51.508;7.018;2023-04-08T06:27:35;7.50;99.90
13998;DHT22;7074;51.508;7.018;2023-04-08T06:30:02;7.50;99.90
13998;DHT22;7074;51.508;7.018;2023-04-08T06:32:30;7.70;99.90
13998;DHT22;7074;51.508;7.018;2023-04-08T06:34:57;7.80;99.90
13998;DHT22;7074;51.508;7.018;2023-04-08T06:37:26;7.50;99.90
13998;DHT22;7074;51.508;7.018;2023-04-08T06:39:53;7.70;99.90
13998;DHT22;7074;51.508;7.018;2023-04-08T06:42:20;7.70;99.90
13998;DHT22;7074;51.508;7.018;2023-04-08T06:45:10;7.80;99.90
13998;DHT22;7074;51.508;7.018;2023-04-08T06:47:37;7.80;99.90
13998;DHT22;7074;51.508;7.018;2023-04-08T06:50:05;7.90;99.90
13998;DHT22;7074;51.508;7.018;2023-04-08T06:52:34;7.90;99.90
13998;DHT22;7074;51.508;7.018;2023-04-08T06:55:01;8.00;99.90
13998;DHT22;7074;51.508;7.018;2023-04-08T06:57:29;7.90;99.90
13998;DHT22;7074;51.508;7.018;2023-04-08T06:59:56;8.00;99.90
13998;DHT22;7074;51.508;7.018;2023-04-08T07:02:25;8.00;99.90
13998;DHT22;7074;51.508;7.018;2023-04-08T07:04:52;8.10;99.90
13998;DHT22;7074;51.508;7.018;2023-04-08T07:07:19;8.10;99.90
13998;DHT22;7074;51.508;7.018;2023-04-08T07:09:50;8.20;99.90
13998;DHT22;7074;51.508;7.018;2023-04-08T07:12:17;8.20;99.90
13998;DHT22;7074;51.508;7.018;2023-04-08T07:14:45;8.10;99.90
13998;DHT22;7074;51.508;7.018;2023-04-08T07:17:12;8.20;99.90
13998;DHT22;7074;51.508;7.018;2023-04-08T07:19:39;8.30;99.90
13998;DHT22;7074;51.508;7.018;2023-04-08T07:22:08;8.50;99.90
13998;DHT22;7074;51.508;7.018;2023-04-08T07:24:36;8.60;99.90
13998;DHT22;7074;51.508;7.018;2023-04-08T07:27:04;8.60;99.90
13998;DHT22;7074;51.508;7.018;2023-04-08T07:29:34;8.60;99.90
13998;DHT22;7074;51.508;7.018;2023-04-08T07:32:01;8.60;99.90
13998;DHT22;7074;51.508;7.018;2023-04-08T07:34:28;8.50;99.90
13998;DHT22;7074;51.508;7.018;2023-04-08T07:36:56;8.70;99.90
13998;DHT22;7074;51.508;7.018;2023-04-08T07:39:23;8.70;99.90
13998;DHT22;7074;51.508;7.018;2023-04-08T07:41:50;8.80;99.90
13998;DHT22;7074;51.508;7.018;2023-04-08T07:44:19;8.90;99.90
13998;DHT22;7074;51.508;7.018;2023-04-08T07:46:46;9.00;99.90
13998;DHT22;7074;51.508;7.018;2023-04-08T07:49:16;8.90;99.90
13998;DHT22;7074;51.508;7.018;2023-04-08T07:51:43;9.10;99.90
13998;DHT22;7074;51.508;7.018;2023-04-08T07:54:10;9.20;99.90
13998;DHT22;7074;51.508;7.018;2023-04-08T07:56:42;9.30;99.90
13998;DHT22;7074;51.508;7.018;2023-04-08T07:59:09;9.30;99.90
13998;DHT22;7074;51.508;7.018;2023-04-08T08:01:38;9.30;99.90
13998;DHT22;7074;51.508;7.018;2023-04-08T08:04:05;9.40;99.90
13998;DHT22;7074;51.508;7.018;2023-04-08T08:06:33;9.50;99.90
13998;DHT22;7074;51.508;7.018;2023-04-08T08:09:00;9.30;99.90
13998;DHT22;7074;51.508;7.018;2023-04-08T08:11:27;9.10;99.90
13998;DHT22;7074;51.508;7.018;2023-04-08T08:13:55;9.20;99.90
13998;DHT22;7074;51.508;7.018;2023-04-08T08:16:22;9.20;99.90
13998;DHT22;7074;51.508;7.018;2023-04-08T08:18:53;9.30;99.90
13998;DHT22;7074;51.508;7.018;2023-04-08T08:21:20;9.10;99.90
13998;DHT22;7074;51.508;7.018;2023-04-08T08:23:48;9.40;99.90
13998;DHT22;7074;51.508;7.018;2023-04-08T08:26:15;9.50;99.90
13998;DHT22;7074;51.508;7.018;2023-04-08T08:28:47;9.40;99.90
13998;DHT22;7074;51.508;7.018;2023-04-08T08:31:15;9.60;99.90
13998;DHT22;7074;51.508;7.018;2023-04-08T08:33:42;9.80;99.90
13998;DHT22;7074;51.508;7.018;2023-04-08T08:36:11;9.60;99.90
13998;DHT22;7074;51.508;7.018;2023-04-08T08:38:38;9.50;99.90
13998;DHT22;7074;51.508;7.018;2023-04-08T08:41:06;9.60;99.90
13998;DHT22;7074;51.508;7.018;2023-04-08T08:43:33;9.50;99.90
13998;DHT22;7074;51.508;7.018;2023-04-08T08:46:01;9.60;99.90
13998;DHT22;7074;51.508;7.018;2023-04-08T08:48:28;9.70;99.90
13998;DHT22;7074;51.508;7.018;2023-04-08T08:50:57;9.80;99.90
13998;DHT22;7074;51.508;7.018;2023-04-08T08:53:29;9.80;99.90
13998;DHT22;7074;51.508;7.018;2023-04-08T08:55:57;10.00;99.90
13998;DHT22;7074;51.508;7.018;2023-04-08T08:58:26;10.20;99.90
13998;DHT22;7074;51.508;7.018;2023-04-08T09:00:56;10.30;99.90
13998;DHT22;7074;51.508;7.018;2023-04-08T09:03:25;10.30;99.90
13998;DHT22;7074;51.508;7.018;2023-04-08T09:05:54;10.40;99.90
13998;DHT22;7074;51.508;7.018;2023-04-08T09:08:30;10.30;99.90
13998;DHT22;7074;51.508;7.018;2023-04-08T09:11:13;10.40;99.90
13998;DHT22;7074;51.508;7.018;2023-04-08T09:13:41;10.50;99.90
13998;DHT22;7074;51.508;7.018;2023-04-08T09:16:10;10.40;99.90
13998;DHT22;7074;51.508;7.018;2023-04-08T09:18:39;10.50;99.90
13998;DHT22;7074;51.508;7.018;2023-04-08T09:21:09;10.40;99.90
13998;DHT22;7074;51.508;7.018;2023-04-08T09:23:40;10.50;99.90
13998;DHT22;7074;51.508;7.018;2023-04-08T09:26:09;10.60;99.90
13998;DHT22;7074;51.508;7.018;2023-04-08T09:28:37;10.90;99.90
13998;DHT22;7074;51.508;7.018;2023-04-08T09:31:20;11.30;99.90
13998;DHT22;7074;51.508;7.018;2023-04-08T09:33:48;11.30;99.90
13998;DHT22;7074;51.508;7.018;2023-04-08T09:36:15;11.40;99.90
13998;DHT22;7074;51.508;7.018;2023-04-08T09:38:44;11.40;99.90
13998;DHT22;7074;51.508;7.018;2023-04-08T09:41:13;11.00;99.90
13998;DHT22;7074;51.508;7.018;2023-04-08T09:43:47;11.30;99.90
13998;DHT22;7074;51.508;7.018;2023-04-08T09:46:16;11.30;99.90
13998;DHT22;7074;51.508;7.018;2023-04-08T09:48:56;11.30;99.90
13998;DHT22;7074;51.508;7.018;2023-04-08T09:51:24;11.20;99.90
13998;DHT22;7074;51.508;7.018;2023-04-08T09:54:00;11.20;99.90
13998;DHT22;7074;51.508;7.018;2023-04-08T09:56:34;11.30;99.90
13998;DHT22;7074;51.508;7.018;2023-04-08T09:59:08;11.40;99.90
13998;DHT22;7074;51.508;7.018;2023-04-08T10:01:39;11.40;99.90
13998;DHT22;7074;51.508;7.018;2023-04-08T10:04:11;11.20;99.90
13998;DHT22;7074;51.508;7.018;2023-04-08T10:06:40;11.30;99.90
13998;DHT22;7074;51.508;7.018;2023-04-08T10:09:10;11.40;99.90
13998;DHT22;7074;51.508;7.018;2023-04-08T10:11:37;11.20;99.90
13998;DHT22;7074;51.508;7.018;2023-04-08T10:14:05;11.20;99.90
13998;DHT22;7074;51.508;7.018;2023-04-08T10:16:32;11.30;99.90
13998;DHT22;7074;51.508;7.018;2023-04-08T10:19:00;11.00;99.90
13998;DHT22;7074;51.508;7.018;2023-04-08T10:21:35;11.10;99.90
13998;DHT22;7074;51.508;7.018;2023-04-08T10:24:06;11.10;99.90
13998;DHT22;7074;51.508;7.018;2023-04-08T10:26:37;11.10;99.90
13998;DHT22;7074;51.508;7.018;2023-04-08T10:29:38;11.20;99.90
13998;DHT22;7074;51.508;7.018;2023-04-08T10:32:06;11.30;99.90
13998;DHT22;7074;51.508;7.018;2023-04-08T10:34:33;11.20;99.90
13998;DHT22;7074;51.508;7.018;2023-04-08T10:37:01;11.20;99.90
13998;DHT22;7074;51.508;7.018;2023-04-08T10:39:29;11.30;99.90
13998;DHT22;7074;51.508;7.018;2023-04-08T10:42:01;11.30;99.90
13998;DHT22;7074;51.508;7.018;2023-04-08T10:44:28;11.30;99.90
13998;DHT22;7074;51.508;7.018;2023-04-08T10:46:56;11.10;99.90
13998;DHT22;7074;51.508;7.018;2023-04-08T10:49:31;11.30;99.90
13998;DHT22;7074;51.508;7.018;2023-04-08T10:52:00;11.50;99.90
13998;DHT22;7074;51.508;7.018;2023-04-08T10:54:27;11.70;99.90
13998;DHT22;7074;51.508;7.018;2023-04-08T10:56:54;11.70;99.90
13998;DHT22;7074;51.508;7.018;2023-04-08T10:59:29;11.70;99.90
13998;DHT22;7074;51.508;7.018;2023-04-08T11:01:56;11.70;99.90
13998;DHT22;7074;51.508;7.018;2023-04-08T11:04:24;11.70;99.90
13998;DHT22;7074;51.508;7.018;2023-04-08T11:06:52;11.80;99.90
13998;DHT22;7074;51.508;7.018;2023-04-08T11:09:19;11.70;99.90
13998;DHT22;7074;51.508;7.018;2023-04-08T11:11:46;11.80;99.90
13998;DHT22;7074;51.508;7.018;2023-04-08T11:14:14;11.90;99.90
13998;DHT22;7074;51.508;7.018;2023-04-08T11:16:46;12.00;99.90
13998;DHT22;7074;51.508;7.018;2023-04-08T11:19:14;12.20;99.90
13998;DHT22;7074;51.508;7.018;2023-04-08T11:21:42;12.10;99.90
13998;DHT22;7074;51.508;7.018;2023-04-08T11:24:10;12.00;99.90
13998;DHT22;7074;51.508;7.018;2023-04-08T11:26:38;12.00;99.90
13998;DHT22;7074;51.508;7.018;2023-04-08T11:29:09;11.50;99.90
13998;DHT22;7074;51.508;7.018;2023-04-08T11:31:42;11.50;99.90
13998;DHT22;7074;51.508;7.018;2023-04-08T11:34:21;11.30;99.90
13998;DHT22;7074;51.508;7.018;2023-04-08T11:36:49;11.60;99.90
13998;DHT22;7074;51.508;7.018;2023-04-08T11:39:16;11.80;99.90
13998;DHT22;7074;51.508;7.018;2023-04-08T11:41:44;12.10;99.90
13998;DHT22;7074;51.508;7.018;2023-04-08T11:44:12;12.20;99.90
13998;DHT22;7074;51.508;7.018;2023-04-08T11:46:39;12.40;99.90
13998;DHT22;7074;51.508;7.018;2023-04-08T11:49:09;12.60;99.90
13998;DHT22;7074;51.508;7.018;2023-04-08T12:12:45;13.20;99.90
13998;DHT22;7074;51.508;7.018;2023-04-08T12:15:12;13.30;99.90
13998;DHT22;7074;51.508;7.018;2023-04-08T12:17:39;13.10;99.90
13998;DHT22;7074;51.508;7.018;2023-04-08T12:20:09;13.20;99.90
13998;DHT22;7074;51.508;7.018;2023-04-08T12:22:37;13.30;99.90
13998;DHT22;7074;51.508;7.018;2023-04-08T12:25:05;13.30;99.90
13998;DHT22;7074;51.508;7.018;2023-04-08T12:27:32;13.40;99.90
13998;DHT22;7074;51.508;7.018;2023-04-08T12:30:02;13.50;99.90
13998;DHT22;7074;51.508;7.018;2023-04-08T12:32:29;13.60;99.90
13998;DHT22;7074;51.508;7.018;2023-04-08T12:34:57;13.60;99.90
13998;DHT22;7074;51.508;7.018;2023-04-08T12:37:24;13.30;99.90
13998;DHT22;7074;51.508;7.018;2023-04-08T12:39:52;13.30;99.90
13998;DHT22;7074;51.508;7.018;2023-04-08T12:42:19;12.90;99.90
13998;DHT22;7074;51.508;7.018;2023-04-08T12:44:47;12.70;99.90
13998;DHT22;7074;51.508;7.018;2023-04-08T12:47:18;12.90;99.90
13998;DHT22;7074;51.508;7.018;2023-04-08T12:49:45;12.70;99.90
13998;DHT22;7074;51.508;7.018;2023-04-08T12:52:14;13.10;99.90
13998;DHT22;7074;51.508;7.018;2023-04-08T12:54:42;13.20;99.90
13998;DHT22;7074;51.508;7.018;2023-04-08T12:57:09;13.40;99.90
13998;DHT22;7074;51.508;7.018;2023-04-08T12:59:37;13.50;99.90
13998;DHT22;7074;51.508;7.018;2023-04-08T13:02:05;13.10;99.90
13998;DHT22;7074;51.508;7.018;2023-04-08T13:04:34;13.10;99.90
13998;DHT22;7074;51.508;7.018;2023-04-08T13:07:01;13.30;99.90
13998;DHT22;7074;51.508;7.018;2023-04-08T13:09:29;13.40;99.90
13998;DHT22;7074;51.508;7.018;2023-04-08T13:11:57;13.50;99.90
13998;DHT22;7074;51.508;7.018;2023-04-08T13:14:24;13.50;99.90
13998;DHT22;7074;51.508;7.018;2023-04-08T13:16:52;13.50;99.90
13998;DHT22;7074;51.508;7.018;2023-04-08T13:19:19;13.50;99.90
13998;DHT22;7074;51.508;7.018;2023-04-08T13:21:48;13.50;99.90
13998;DHT22;7074;51.508;7.018;2023-04-08T13:24:16;13.60;99.90
13998;DHT22;7074;51.508;7.018;2023-04-08T13:26:43;13.70;99.90
13998;DHT22;7074;51.508;7.018;2023-04-08T13:29:11;13.80;99.90
13998;DHT22;7074;51.508;7.018;2023-04-08T13:31:38;13.90;99.90
13998;DHT22;7074;51.508;7.018;2023-04-08T13:34:06;14.00;99.90
13998;DHT22;7074;51.508;7.018;2023-04-08T13:36:33;14.10;99.90
13998;DHT22;7074;51.508;7.018;2023-04-08T13:39:02;14.10;99.90
13998;DHT22;7074;51.508;7.018;2023-04-08T13:41:29;14.00;99.90
13998;DHT22;7074;51.508;7.018;2023-04-08T13:43:56;14.00;99.90
13998;DHT22;7074;51.508;7.018;2023-04-08T13:46:23;14.10;99.90
13998;DHT22;7074;51.508;7.018;2023-04-08T13:48:51;14.00;99.90
13998;DHT22;7074;51.508;7.018;2023-04-08T13:51:18;13.90;99.90
13998;DHT22;7074;51.508;7.018;2023-04-08T13:53:45;13.90;99.90
13998;DHT22;7074;51.508;7.018;2023-04-08T13:56:14;14.00;99.90
13998;DHT22;7074;51.508;7.018;2023-04-08T13:58:41;14.10;99.90
13998;DHT22;7074;51.508;7.018;2023-04-08T14:01:09;14.20;99.90
13998;DHT22;7074;51.508;7.018;2023-04-08T14:03:36;14.20;99.90
13998;DHT22;7074;51.508;7.018;2023-04-08T14:06:03;14.10;99.90
13998;DHT22;7074;51.508;7.018;2023-04-08T14:08:31;14.00;99.90
13998;DHT22;7074;51.508;7.018;2023-04-08T14:10:58;14.00;99.90
13998;DHT22;7074;51.508;7.018;2023-04-08T14:13:27;13.80;99.90
13998;DHT22;7074;51.508;7.018;2023-04-08T14:15:54;13.80;99.90
13998;DHT22;7074;51.508;7.018;2023-04-08T14:18:23;13.90;99.90
13998;DHT22;7074;51.508;7.018;2023-04-08T14:20:51;14.00;99.90
13998;DHT22;7074;51.508;7.018;2023-04-08T14:23:18;14.00;99.90
13998;DHT22;7074;51.508;7.018;2023-04-08T14:25:45;14.00;99.90
13998;DHT22;7074;51.508;7.018;2023-04-08T14:28:13;14.00;99.90
13998;DHT22;7074;51.508;7.018;2023-04-08T14:30:41;14.00;99.90
13998;DHT22;7074;51.508;7.018;2023-04-08T14:33:09;13.90;99.90
13998;DHT22;7074;51.508;7.018;2023-04-08T14:35:36;14.00;99.90
13998;DHT22;7074;51.508;7.018;2023-04-08T14:38:03;14.00;99.90
13998;DHT22;7074;51.508;7.018;2023-04-08T14:40:30;13.80;99.90
13998;DHT22;7074;51.508;7.018;2023-04-08T14:42:57;13.90;99.90
13998;DHT22;7074;51.508;7.018;2023-04-08T14:45:25;13.90;99.90
13998;DHT22;7074;51.508;7.018;2023-04-08T14:47:54;13.90;99.90
13998;DHT22;7074;51.508;7.018;2023-04-08T14:50:21;13.90;99.90
13998;DHT22;7074;51.508;7.018;2023-04-08T14:52:48;13.90;99.90
13998;DHT22;7074;51.508;7.018;2023-04-08T14:55:16;13.90;99.90
13998;DHT22;7074;51.508;7.018;2023-04-08T14:57:43;13.90;99.90
13998;DHT22;7074;51.508;7.018;2023-04-08T15:00:11;13.70;99.90
13998;DHT22;7074;51.508;7.018;2023-04-08T15:02:38;13.40;99.90
13998;DHT22;7074;51.508;7.018;2023-04-08T15:05:08;13.40;99.90
13998;DHT22;7074;51.508;7.018;2023-04-08T15:07:35;13.50;99.90
13998;DHT22;7074;51.508;7.018;2023-04-08T15:10:02;13.50;99.90
13998;DHT22;7074;51.508;7.018;2023-04-08T15:12:29;13.60;99.90
13998;DHT22;7074;51.508;7.018;2023-04-08T15:14:57;13.50;99.90
13998;DHT22;7074;51.508;7.018;2023-04-08T15:17:24;13.50;99.90
13998;DHT22;7074;51.508;7.018;2023-04-08T15:19:52;13.50;99.90
13998;DHT22;7074;51.508;7.018;2023-04-08T15:22:20;13.70;99.90
13998;DHT22;7074;51.508;7.018;2023-04-08T15:24:48;13.60;99.90
13998;DHT22;7074;51.508;7.018;2023-04-08T15:27:15;13.70;99.90
13998;DHT22;7074;51.508;7.018;2023-04-08T15:29:42;13.70;99.90
13998;DHT22;7074;51.508;7.018;2023-04-08T15:32:09;13.60;99.90
13998;DHT22;7074;51.508;7.018;2023-04-08T15:34:36;13.50;99.90
13998;DHT22;7074;51.508;7.018;2023-04-08T15:37:03;13.50;99.90
13998;DHT22;7074;51.508;7.018;2023-04-08T15:39:32;13.40;99.90
13998;DHT22;7074;51.508;7.018;2023-04-08T15:41:59;13.30;99.90
13998;DHT22;7074;51.508;7.018;2023-04-08T15:44:29;13.30;99.90
13998;DHT22;7074;51.508;7.018;2023-04-08T15:46:57;13.30;99.90
13998;DHT22;7074;51.508;7.018;2023-04-08T15:49:24;13.00;99.90
13998;DHT22;7074;51.508;7.018;2023-04-08T15:51:52;12.90;99.90
13998;DHT22;7074;51.508;7.018;2023-04-08T15:54:19;13.10;99.90
13998;DHT22;7074;51.508;7.018;2023-04-08T15:56:47;13.20;99.90
13998;DHT22;7074;51.508;7.018;2023-04-08T15:59:14;13.20;99.90
13998;DHT22;7074;51.508;7.018;2023-04-08T16:01:41;13.30;99.90
13998;DHT22;7074;51.508;7.018;2023-04-08T16:04:09;13.30;99.90
13998;DHT22;7074;51.508;7.018;2023-04-08T16:06:36;13.30;99.90
13998;DHT22;7074;51.508;7.018;2023-04-08T16:09:03;13.30;99.90
13998;DHT22;7074;51.508;7.018;2023-04-08T16:11:32;13.40;99.90
13998;DHT22;7074;51.508;7.018;2023-04-08T16:14:02;13.50;99.90
13998;DHT22;7074;51.508;7.018;2023-04-08T16:16:30;13.50;99.90
13998;DHT22;7074;51.508;7.018;2023-04-08T16:18:57;13.60;99.90
13998;DHT22;7074;51.508;7.018;2023-04-08T16:21:24;13.60;99.90
13998;DHT22;7074;51.508;7.018;2023-04-08T16:23:52;13.50;99.90
13998;DHT22;7074;51.508;7.018;2023-04-08T16:26:19;13.50;99.90
13998;DHT22;7074;51.508;7.018;2023-04-08T16:28:47;13.50;99.90
13998;DHT22;7074;51.508;7.018;2023-04-08T16:31:15;13.50;99.90
13998;DHT22;7074;51.508;7.018;2023-04-08T16:33:42;13.40;99.90
13998;DHT22;7074;51.508;7.018;2023-04-08T16:36:09;13.50;99.90
13998;DHT22;7074;51.508;7.018;2023-04-08T16:38:37;13.50;99.90
13998;DHT22;7074;51.508;7.018;2023-04-08T16:41:04;13.50;99.90
13998;DHT22;7074;51.508;7.018;2023-04-08T16:43:35;13.50;99.90
13998;DHT22;7074;51.508;7.018;2023-04-08T16:46:08;13.50;99.90
13998;DHT22;7074;51.508;7.018;2023-04-08T16:48:38;13.50;99.90
13998;DHT22;7074;51.508;7.018;2023-04-08T16:51:06;13.40;99.90
13998;DHT22;7074;51.508;7.018;2023-04-08T16:53:34;13.40;99.90
13998;DHT22;7074;51.508;7.018;2023-04-08T16:56:02;13.40;99.90
13998;DHT22;7074;51.508;7.018;2023-04-08T16:58:29;13.30;99.90
13998;DHT22;7074;51.508;7.018;2023-04-08T17:00:56;13.30;99.90
13998;DHT22;7074;51.508;7.018;2023-04-08T17:03:23;13.20;99.90
13998;DHT22;7074;51.508;7.018;2023-04-08T17:05:53;13.30;99.90
13998;DHT22;7074;51.508;7.018;2023-04-08T17:08:20;13.40;99.90
13998;DHT22;7074;51.508;7.018;2023-04-08T17:10:48;13.40;99.90
13998;DHT22;7074;51.508;7.018;2023-04-08T17:13:15;13.40;99.90
13998;DHT22;7074;51.508;7.018;2023-04-08T17:15:42;13.50;99.90
13998;DHT22;7074;51.508;7.018;2023-04-08T17:18:09;13.50;99.90
13998;DHT22;7074;51.508;7.018;2023-04-08T17:20:36;13.50;99.90
13998;DHT22;7074;51.508;7.018;2023-04-08T17:23:05;13.40;99.90
13998;DHT22;7074;51.508;7.018;2023-04-08T17:25:33;13.40;99.90
13998;DHT22;7074;51.508;7.018;2023-04-08T17:28:00;13.50;99.90
13998;DHT22;7074;51.508;7.018;2023-04-08T17:30:27;13.40;99.90
13998;DHT22;7074;51.508;7.018;2023-04-08T17:32:54;13.30;99.90
13998;DHT22;7074;51.508;7.018;2023-04-08T17:35:22;13.30;99.90
13998;DHT22;7074;51.508;7.018;2023-04-08T17:37:49;13.30;99.90
13998;DHT22;7074;51.508;7.018;2023-04-08T17:40:18;13.30;99.90
13998;DHT22;7074;51.508;7.018;2023-04-08T17:42:45;13.40;99.90
13998;DHT22;7074;51.508;7.018;2023-04-08T17:45:12;13.40;99.90
13998;DHT22;7074;51.508;7.018;2023-04-08T17:47:40;13.40;99.90
13998;DHT22;7074;51.508;7.018;2023-04-08T17:50:08;13.50;99.90
13998;DHT22;7074;51.508;7.018;2023-04-08T17:52:35;13.50;99.90
13998;DHT22;7074;51.508;7.018;2023-04-08T17:55:02;13.40;99.90
13998;DHT22;7074;51.508;7.018;2023-04-08T17:57:31;13.40;99.90
13998;DHT22;7074;51.508;7.018;2023-04-08T17:59:58;13.30;99.90
13998;DHT22;7074;51.508;7.018;2023-04-08T18:02:26;13.20;99.90
13998;DHT22;7074;51.508;7.018;2023-04-08T18:04:53;13.20;99.90
13998;DHT22;7074;51.508;7.018;2023-04-08T18:07:21;13.00;99.90
13998;DHT22;7074;51.508;7.018;2023-04-08T18:09:48;13.00;99.90
13998;DHT22;7074;51.508;7.018;2023-04-08T18:12:15;13.00;99.90
13998;DHT22;7074;51.508;7.018;2023-04-08T18:14:44;12.90;99.90
13998;DHT22;7074;51.508;7.018;2023-04-08T18:17:11;12.90;99.90
13998;DHT22;7074;51.508;7.018;2023-04-08T18:19:39;12.80;99.90
13998;DHT22;7074;51.508;7.018;2023-04-08T18:22:06;12.80;99.90
13998;DHT22;7074;51.508;7.018;2023-04-08T18:24:33;12.70;99.90
13998;DHT22;7074;51.508;7.018;2023-04-08T18:27:01;12.80;99.90
13998;DHT22;7074;51.508;7.018;2023-04-08T18:29:29;12.60;99.90
13998;DHT22;7074;51.508;7.018;2023-04-08T18:31:57;12.70;99.90
13998;DHT22;7074;51.508;7.018;2023-04-08T18:34:24;12.70;99.90
13998;DHT22;7074;51.508;7.018;2023-04-08T18:36:52;12.70;99.90
13998;DHT22;7074;51.508;7.018;2023-04-08T18:39:19;12.70;99.90
13998;DHT22;7074;51.508;7.018;2023-04-08T18:41:46;12.70;99.90
13998;DHT22;7074;51.508;7.018;2023-04-08T18:44:13;12.70;99.90
13998;DHT22;7074;51.508;7.018;2023-04-08T18:46:40;12.70;99.90
13998;DHT22;7074;51.508;7.018;2023-04-08T18:49:08;12.70;99.90
13998;DHT22;7074;51.508;7.018;2023-04-08T18:51:36;12.70;99.90
13998;DHT22;7074;51.508;7.018;2023-04-08T18:54:03;12.70;99.90
13998;DHT22;7074;51.508;7.018;2023-04-08T18:56:30;12.70;99.90
13998;DHT22;7074;51.508;7.018;2023-04-08T18:58:58;12.70;99.90
13998;DHT22;7074;51.508;7.018;2023-04-08T19:01:25;12.60;99.90
13998;DHT22;7074;51.508;7.018;2023-04-08T19:03:53;12.60;99.90
13998;DHT22;7074;51.508;7.018;2023-04-08T19:06:22;12.60;99.90
13998;DHT22;7074;51.508;7.018;2023-04-08T19:08:50;12.60;99.90
13998;DHT22;7074;51.508;7.018;2023-04-08T19:11:17;12.50;99.90
13998;DHT22;7074;51.508;7.018;2023-04-08T19:13:45;12.40;99.90